sensor_id;sensor_type;location;lat;lon;timestamp;temperature;humidity
69503;SHT31;56704;54.242;12.442;2022-12-29T00:02:21;6.61;98.52
69503;SHT31;56704;54.242;12.442;2022-12-29T00:04:49;6.64;98.54
69503;SHT31;56704;54.242;12.442;2022-12-29T00:07:16;6.63;98.33
69503;SHT31;56704;54.242;12.442;2022-12-29T00:09:42;6.65;98.23
69503;SHT31;56704;54.242;12.442;2022-12-29T00:12:09;6.65;98.42
69503;SHT31;56704;54.242;12.442;2022-12-29T00:14:35;6.61;98.33
69503;SHT31;56704;54.242;12.442;2022-12-29T00:17:21;6.63;98.44
69503;SHT31;56704;54.242;12.442;2022-12-29T00:19:47;6.65;98.38
69503;SHT31;56704;54.242;12.442;2022-12-29T00:22:31;6.63;98.30
69503;SHT31;56704;54.242;12.442;2022-12-29T00:25:17;6.65;98.57
69503;SHT31;56704;54.242;12.442;2022-12-29T00:28:01;6.65;98.30
69503;SHT31;56704;54.242;12.442;2022-12-29T00:30:45;6.60;98.73
69503;SHT31;56704;54.242;12.442;2022-12-29T00:33:32;6.63;98.68
69503;SHT31;56704;54.242;12.442;2022-12-29T00:36:18;6.68;98.65
69503;SHT31;56704;54.242;12.442;2022-12-29T00:38:49;6.65;98.61
69503;SHT31;56704;54.242;12.442;2022-12-29T00:41:33;6.63;98.74
69503;SHT31;56704;54.242;12.442;2022-12-29T00:44:18;6.63;98.62
69503;SHT31;56704;54.242;12.442;2022-12-29T00:46:44;6.67;98.21
69503;SHT31;56704;54.242;12.442;2022-12-29T00:49:13;6.65;98.42
69503;SHT31;56704;54.242;12.442;2022-12-29T00:52:00;6.61;98.56
69503;SHT31;56704;54.242;12.442;2022-12-29T00:54:29;6.64;98.46
69503;SHT31;56704;54.242;12.442;2022-12-29T00:56:55;6.64;98.59
69503;SHT31;56704;54.242;12.442;2022-12-29T00:59:22;6.65;98.55
69503;SHT31;56704;54.242;12.442;2022-12-29T01:01:50;6.65;98.66
69503;SHT31;56704;54.242;12.442;2022-12-29T01:04:19;6.65;98.55
69503;SHT31;56704;54.242;12.442;2022-12-29T01:06:46;6.72;98.40
69503;SHT31;56704;54.242;12.442;2022-12-29T01:09:13;6.68;98.60
69503;SHT31;56704;54.242;12.442;2022-12-29T01:11:57;6.74;98.43
69503;SHT31;56704;54.242;12.442;2022-12-29T01:14:24;6.75;98.41
69503;SHT31;56704;54.242;12.442;2022-12-29T01:16:51;6.79;98.39
69503;SHT31;56704;54.242;12.442;2022-12-29T01:19:19;6.81;98.52
69503;SHT31;56704;54.242;12.442;2022-12-29T01:21:47;6.78;98.55
69503;SHT31;56704;54.242;12.442;2022-12-29T01:24:14;6.74;98.50
69503;SHT31;56704;54.242;12.442;2022-12-29T01:26:41;6.79;98.56
69503;SHT31;56704;54.242;12.442;2022-12-29T01:29:07;6.77;98.39
69503;SHT31;56704;54.242;12.442;2022-12-29T01:31:34;6.78;98.54
69503;SHT31;56704;54.242;12.442;2022-12-29T01:34:01;6.75;98.54
69503;SHT31;56704;54.242;12.442;2022-12-29T01:36:29;6.78;98.58
69503;SHT31;56704;54.242;12.442;2022-12-29T01:38:56;6.79;98.67
69503;SHT31;56704;54.242;12.442;2022-12-29T01:41:23;6.77;98.60
69503;SHT31;56704;54.242;12.442;2022-12-29T01:43:51;6.79;98.59
69503;SHT31;56704;54.242;12.442;2022-12-29T01:46:22;6.85;98.57
69503;SHT31;56704;54.242;12.442;2022-12-29T01:48:52;6.85;98.63
69503;SHT31;56704;54.242;12.442;2022-12-29T01:51:22;6.89;98.52
69503;SHT31;56704;54.242;12.442;2022-12-29T01:53:51;6.89;98.49
69503;SHT31;56704;54.242;12.442;2022-12-29T01:56:20;6.92;98.45
69503;SHT31;56704;54.242;12.442;2022-12-29T01:58:49;6.91;98.49
69503;SHT31;56704;54.242;12.442;2022-12-29T02:01:18;6.95;98.47
69503;SHT31;56704;54.242;12.442;2022-12-29T02:03:46;6.96;98.44
69503;SHT31;56704;54.242;12.442;2022-12-29T02:06:15;7.02;98.38
69503;SHT31;56704;54.242;12.442;2022-12-29T02:08:46;7.00;98.36
69503;SHT31;56704;54.242;12.442;2022-12-29T02:11:15;6.96;98.39
69503;SHT31;56704;54.242;12.442;2022-12-29T02:13:42;6.98;98.48
69503;SHT31;56704;54.242;12.442;2022-12-29T02:16:20;7.02;98.31
69503;SHT31;56704;54.242;12.442;2022-12-29T02:18:59;6.99;98.34
69503;SHT31;56704;54.242;12.442;2022-12-29T02:22:00;6.99;98.45
69503;SHT31;56704;54.242;12.442;2022-12-29T02:24:58;7.03;98.40
69503;SHT31;56704;54.242;12.442;2022-12-29T02:27:48;7.09;98.36
69503;SHT31;56704;54.242;12.442;2022-12-29T02:30:42;7.09;98.37
69503;SHT31;56704;54.242;12.442;2022-12-29T02:33:19;7.09;98.33
69503;SHT31;56704;54.242;12.442;2022-12-29T02:35:54;7.08;98.32
69503;SHT31;56704;54.242;12.442;2022-12-29T02:38:33;7.06;98.39
69503;SHT31;56704;54.242;12.442;2022-12-29T02:41:07;7.03;98.44
69503;SHT31;56704;54.242;12.442;2022-12-29T02:43:47;7.03;98.41
69503;SHT31;56704;54.242;12.442;2022-12-29T02:46:21;7.08;98.36
69503;SHT31;56704;54.242;12.442;2022-12-29T02:48:57;7.10;98.33
69503;SHT31;56704;54.242;12.442;2022-12-29T02:51:30;7.13;98.39
69503;SHT31;56704;54.242;12.442;2022-12-29T02:53:59;7.13;98.35
69503;SHT31;56704;54.242;12.442;2022-12-29T02:56:43;7.15;98.38
69503;SHT31;56704;54.242;12.442;2022-12-29T02:59:10;7.16;98.38
69503;SHT31;56704;54.242;12.442;2022-12-29T03:02:01;7.23;98.08
69503;SHT31;56704;54.242;12.442;2022-12-29T03:04:54;7.26;98.27
69503;SHT31;56704;54.242;12.442;2022-12-29T03:07:28;7.30;97.95
69503;SHT31;56704;54.242;12.442;2022-12-29T03:10:02;7.34;97.86
69503;SHT31;56704;54.242;12.442;2022-12-29T03:12:35;7.36;98.11
69503;SHT31;56704;54.242;12.442;2022-12-29T03:15:24;7.34;98.08
69503;SHT31;56704;54.242;12.442;2022-12-29T03:18:15;7.33;98.21
69503;SHT31;56704;54.242;12.442;2022-12-29T03:20:47;7.42;98.28
69503;SHT31;56704;54.242;12.442;2022-12-29T03:23:16;7.33;98.16
69503;SHT31;56704;54.242;12.442;2022-12-29T03:25:46;7.31;98.16
69503;SHT31;56704;54.242;12.442;2022-12-29T03:28:17;7.33;97.97
69503;SHT31;56704;54.242;12.442;2022-12-29T03:30:45;7.29;98.22
69503;SHT31;56704;54.242;12.442;2022-12-29T03:33:16;7.36;97.81
69503;SHT31;56704;54.242;12.442;2022-12-29T03:35:44;7.29;98.12
69503;SHT31;56704;54.242;12.442;2022-12-29T03:38:14;7.26;98.28
69503;SHT31;56704;54.242;12.442;2022-12-29T03:40:43;7.33;98.23
69503;SHT31;56704;54.242;12.442;2022-12-29T03:43:11;7.31;98.13
69503;SHT31;56704;54.242;12.442;2022-12-29T03:45:39;7.34;98.20
69503;SHT31;56704;54.242;12.442;2022-12-29T03:48:05;7.34;98.30
69503;SHT31;56704;54.242;12.442;2022-12-29T03:50:33;7.33;98.24
69503;SHT31;56704;54.242;12.442;2022-12-29T03:53:00;7.47;98.08
69503;SHT31;56704;54.242;12.442;2022-12-29T03:55:26;7.50;97.88
69503;SHT31;56704;54.242;12.442;2022-12-29T03:57:53;7.49;98.04
69503;SHT31;56704;54.242;12.442;2022-12-29T04:00:20;7.51;97.95
69503;SHT31;56704;54.242;12.442;2022-12-29T04:02:46;7.47;98.12
69503;SHT31;56704;54.242;12.442;2022-12-29T04:05:13;7.46;98.24
69503;SHT31;56704;54.242;12.442;2022-12-29T04:07:41;7.46;98.09
69503;SHT31;56704;54.242;12.442;2022-12-29T04:10:08;7.42;98.28
69503;SHT31;56704;54.242;12.442;2022-12-29T04:12:35;7.42;98.30
69503;SHT31;56704;54.242;12.442;2022-12-29T04:15:01;7.46;98.12
69503;SHT31;56704;54.242;12.442;2022-12-29T04:17:28;7.50;98.24
69503;SHT31;56704;54.242;12.442;2022-12-29T04:19:54;7.54;98.18
69503;SHT31;56704;54.242;12.442;2022-12-29T04:22:43;7.59;97.81
69503;SHT31;56704;54.242;12.442;2022-12-29T04:25:09;7.53;98.13
69503;SHT31;56704;54.242;12.442;2022-12-29T04:27:36;7.53;98.23
69503;SHT31;56704;54.242;12.442;2022-12-29T04:30:03;7.50;98.07
69503;SHT31;56704;54.242;12.442;2022-12-29T04:32:30;7.53;98.07
69503;SHT31;56704;54.242;12.442;2022-12-29T04:34:57;7.50;98.09
69503;SHT31;56704;54.242;12.442;2022-12-29T04:37:23;7.50;98.08
69503;SHT31;56704;54.242;12.442;2022-12-29T04:39:51;7.49;98.15
69503;SHT31;56704;54.242;12.442;2022-12-29T04:42:18;7.50;97.90
69503;SHT31;56704;54.242;12.442;2022-12-29T04:44:44;7.49;97.86
69503;SHT31;56704;54.242;12.442;2022-12-29T04:47:11;7.47;97.96
69503;SHT31;56704;54.242;12.442;2022-12-29T04:49:38;7.46;97.98
69503;SHT31;56704;54.242;12.442;2022-12-29T04:52:04;7.54;97.71
69503;SHT31;56704;54.242;12.442;2022-12-29T04:54:31;7.43;97.97
69503;SHT31;56704;54.242;12.442;2022-12-29T04:56:59;7.40;98.16
69503;SHT31;56704;54.242;12.442;2022-12-29T04:59:25;7.43;98.06
69503;SHT31;56704;54.242;12.442;2022-12-29T05:01:52;7.57;97.47
69503;SHT31;56704;54.242;12.442;2022-12-29T05:04:19;7.49;97.75
69503;SHT31;56704;54.242;12.442;2022-12-29T05:06:45;7.64;97.47
69503;SHT31;56704;54.242;12.442;2022-12-29T05:09:12;7.51;97.86
69503;SHT31;56704;54.242;12.442;2022-12-29T05:11:38;7.57;97.73
69503;SHT31;56704;54.242;12.442;2022-12-29T05:14:06;7.51;97.67
69503;SHT31;56704;54.242;12.442;2022-12-29T05:16:33;7.56;97.66
69503;SHT31;56704;54.242;12.442;2022-12-29T05:19:00;7.53;97.92
69503;SHT31;56704;54.242;12.442;2022-12-29T05:21:26;7.59;97.72
69503;SHT31;56704;54.242;12.442;2022-12-29T05:23:53;7.57;97.77
69503;SHT31;56704;54.242;12.442;2022-12-29T05:26:20;7.56;97.79
69503;SHT31;56704;54.242;12.442;2022-12-29T05:28:46;7.63;97.53
69503;SHT31;56704;54.242;12.442;2022-12-29T05:31:14;7.64;97.68
69503;SHT31;56704;54.242;12.442;2022-12-29T05:33:41;7.69;97.48
69503;SHT31;56704;54.242;12.442;2022-12-29T05:36:09;7.71;97.50
69503;SHT31;56704;54.242;12.442;2022-12-29T05:38:35;7.71;97.45
69503;SHT31;56704;54.242;12.442;2022-12-29T05:41:02;7.75;97.27
69503;SHT31;56704;54.242;12.442;2022-12-29T05:43:29;7.80;97.48
69503;SHT31;56704;54.242;12.442;2022-12-29T05:45:56;7.75;97.48
69503;SHT31;56704;54.242;12.442;2022-12-29T05:48:24;7.82;97.24
69503;SHT31;56704;54.242;12.442;2022-12-29T05:50:51;7.80;97.48
69503;SHT31;56704;54.242;12.442;2022-12-29T05:53:18;7.90;96.81
69503;SHT31;56704;54.242;12.442;2022-12-29T05:55:47;7.88;97.11
69503;SHT31;56704;54.242;12.442;2022-12-29T05:58:14;7.90;97.01
69503;SHT31;56704;54.242;12.442;2022-12-29T06:00:41;7.94;96.78
69503;SHT31;56704;54.242;12.442;2022-12-29T06:03:07;7.91;97.01
69503;SHT31;56704;54.242;12.442;2022-12-29T06:05:35;7.97;96.51
69503;SHT31;56704;54.242;12.442;2022-12-29T06:08:02;7.90;97.02
69503;SHT31;56704;54.242;12.442;2022-12-29T06:10:28;7.90;96.98
69503;SHT31;56704;54.242;12.442;2022-12-29T06:12:55;7.95;96.64
69503;SHT31;56704;54.242;12.442;2022-12-29T06:15:22;7.98;96.68
69503;SHT31;56704;54.242;12.442;2022-12-29T06:17:48;8.01;96.62
69503;SHT31;56704;54.242;12.442;2022-12-29T06:20:15;8.01;97.07
69503;SHT31;56704;54.242;12.442;2022-12-29T06:22:43;8.08;96.54
69503;SHT31;56704;54.242;12.442;2022-12-29T06:25:11;8.09;96.80
69503;SHT31;56704;54.242;12.442;2022-12-29T06:27:37;8.06;97.20
69503;SHT31;56704;54.242;12.442;2022-12-29T06:30:05;8.06;97.07
69503;SHT31;56704;54.242;12.442;2022-12-29T06:32:32;8.15;96.53
69503;SHT31;56704;54.242;12.442;2022-12-29T06:34:58;8.15;96.52
69503;SHT31;56704;54.242;12.442;2022-12-29T06:37:25;8.12;96.94
69503;SHT31;56704;54.242;12.442;2022-12-29T06:39:53;8.18;96.57
69503;SHT31;56704;54.242;12.442;2022-12-29T06:42:20;8.13;96.66
69503;SHT31;56704;54.242;12.442;2022-12-29T06:44:47;8.09;96.99
69503;SHT31;56704;54.242;12.442;2022-12-29T06:47:13;8.11;97.02
69503;SHT31;56704;54.242;12.442;2022-12-29T06:49:40;8.15;96.82
69503;SHT31;56704;54.242;12.442;2022-12-29T06:52:06;8.13;96.90
69503;SHT31;56704;54.242;12.442;2022-12-29T06:54:33;8.16;97.05
69503;SHT31;56704;54.242;12.442;2022-12-29T06:57:01;8.22;97.10
69503;SHT31;56704;54.242;12.442;2022-12-29T06:59:28;8.32;96.83
69503;SHT31;56704;54.242;12.442;2022-12-29T07:01:54;8.36;96.76
69503;SHT31;56704;54.242;12.442;2022-12-29T07:04:21;8.45;96.85
69503;SHT31;56704;54.242;12.442;2022-12-29T07:06:47;8.30;97.78
69503;SHT31;56704;54.242;12.442;2022-12-29T07:09:14;8.28;98.07
69503;SHT31;56704;54.242;12.442;2022-12-29T07:11:40;8.24;98.25
69503;SHT31;56704;54.242;12.442;2022-12-29T07:14:10;8.36;97.89
69503;SHT31;56704;54.242;12.442;2022-12-29T07:16:37;8.38;98.12
69503;SHT31;56704;54.242;12.442;2022-12-29T07:19:04;8.30;98.20
69503;SHT31;56704;54.242;12.442;2022-12-29T07:21:30;8.35;98.20
69503;SHT31;56704;54.242;12.442;2022-12-29T07:23:57;8.38;98.24
69503;SHT31;56704;54.242;12.442;2022-12-29T07:26:23;8.35;98.29
69503;SHT31;56704;54.242;12.442;2022-12-29T07:28:50;8.33;98.34
69503;SHT31;56704;54.242;12.442;2022-12-29T07:31:20;8.35;98.30
69503;SHT31;56704;54.242;12.442;2022-12-29T07:33:47;8.35;98.27
69503;SHT31;56704;54.242;12.442;2022-12-29T07:36:15;8.33;98.37
69503;SHT31;56704;54.242;12.442;2022-12-29T07:38:43;8.33;98.25
69503;SHT31;56704;54.242;12.442;2022-12-29T07:41:09;8.38;98.02
69503;SHT31;56704;54.242;12.442;2022-12-29T07:43:36;8.39;98.06
69503;SHT31;56704;54.242;12.442;2022-12-29T07:46:03;8.45;97.80
69503;SHT31;56704;54.242;12.442;2022-12-29T07:48:31;8.43;97.93
69503;SHT31;56704;54.242;12.442;2022-12-29T07:50:58;8.43;97.82
69503;SHT31;56704;54.242;12.442;2022-12-29T07:53:25;8.48;97.67
69503;SHT31;56704;54.242;12.442;2022-12-29T07:55:52;8.53;97.57
69503;SHT31;56704;54.242;12.442;2022-12-29T07:58:18;8.59;97.25
69503;SHT31;56704;54.242;12.442;2022-12-29T08:00:45;8.64;97.10
69503;SHT31;56704;54.242;12.442;2022-12-29T08:03:11;8.53;97.20
69503;SHT31;56704;54.242;12.442;2022-12-29T08:05:39;8.52;97.28
69503;SHT31;56704;54.242;12.442;2022-12-29T08:08:06;8.57;96.73
69503;SHT31;56704;54.242;12.442;2022-12-29T08:10:32;8.57;96.87
69503;SHT31;56704;54.242;12.442;2022-12-29T08:12:59;8.57;96.97
69503;SHT31;56704;54.242;12.442;2022-12-29T08:15:26;8.57;96.82
69503;SHT31;56704;54.242;12.442;2022-12-29T08:17:52;8.57;97.10
69503;SHT31;56704;54.242;12.442;2022-12-29T08:20:19;8.64;96.88
69503;SHT31;56704;54.242;12.442;2022-12-29T08:22:47;8.61;96.96
69503;SHT31;56704;54.242;12.442;2022-12-29T08:25:14;8.70;96.86
69503;SHT31;56704;54.242;12.442;2022-12-29T08:27:40;8.70;96.63
69503;SHT31;56704;54.242;12.442;2022-12-29T08:30:08;8.70;96.51
69503;SHT31;56704;54.242;12.442;2022-12-29T08:32:35;8.70;96.23
69503;SHT31;56704;54.242;12.442;2022-12-29T08:35:02;8.71;96.37
69503;SHT31;56704;54.242;12.442;2022-12-29T08:37:28;8.66;96.45
69503;SHT31;56704;54.242;12.442;2022-12-29T08:39:56;8.67;96.43
69503;SHT31;56704;54.242;12.442;2022-12-29T08:42:24;8.71;96.18
69503;SHT31;56704;54.242;12.442;2022-12-29T08:44:56;8.69;96.40
69503;SHT31;56704;54.242;12.442;2022-12-29T08:47:22;8.81;95.97
69503;SHT31;56704;54.242;12.442;2022-12-29T08:49:49;8.81;96.14
69503;SHT31;56704;54.242;12.442;2022-12-29T08:52:15;8.87;95.93
69503;SHT31;56704;54.242;12.442;2022-12-29T08:54:42;8.99;95.42
69503;SHT31;56704;54.242;12.442;2022-12-29T08:57:10;9.00;95.13
69503;SHT31;56704;54.242;12.442;2022-12-29T08:59:37;9.04;95.18
69503;SHT31;56704;54.242;12.442;2022-12-29T09:02:10;9.05;95.57
69503;SHT31;56704;54.242;12.442;2022-12-29T09:04:36;9.04;95.81
69503;SHT31;56704;54.242;12.442;2022-12-29T09:07:03;9.15;95.03
69503;SHT31;56704;54.242;12.442;2022-12-29T09:09:29;9.27;94.15
69503;SHT31;56704;54.242;12.442;2022-12-29T09:11:56;9.35;94.12
69503;SHT31;56704;54.242;12.442;2022-12-29T09:14:24;9.41;94.19
69503;SHT31;56704;54.242;12.442;2022-12-29T09:16:51;9.35;94.19
69503;SHT31;56704;54.242;12.442;2022-12-29T09:19:35;9.30;94.81
69503;SHT31;56704;54.242;12.442;2022-12-29T09:22:02;9.28;95.03
69503;SHT31;56704;54.242;12.442;2022-12-29T09:24:29;9.34;94.67
69503;SHT31;56704;54.242;12.442;2022-12-29T09:26:56;9.36;94.30
69503;SHT31;56704;54.242;12.442;2022-12-29T09:29:24;9.41;94.06
69503;SHT31;56704;54.242;12.442;2022-12-29T09:31:51;9.42;93.99
69503;SHT31;56704;54.242;12.442;2022-12-29T09:34:17;9.38;94.55
69503;SHT31;56704;54.242;12.442;2022-12-29T09:36:44;9.31;94.91
69503;SHT31;56704;54.242;12.442;2022-12-29T09:39:12;9.31;95.08
69503;SHT31;56704;54.242;12.442;2022-12-29T09:41:41;9.25;95.27
69503;SHT31;56704;54.242;12.442;2022-12-29T09:44:17;9.22;94.89
69503;SHT31;56704;54.242;12.442;2022-12-29T09:46:49;9.14;95.91
69503;SHT31;56704;54.242;12.442;2022-12-29T09:49:23;9.03;96.25
69503;SHT31;56704;54.242;12.442;2022-12-29T09:51:53;8.92;97.05
69503;SHT31;56704;54.242;12.442;2022-12-29T09:54:34;8.94;96.66
69503;SHT31;56704;54.242;12.442;2022-12-29T09:57:03;8.90;97.13
69503;SHT31;56704;54.242;12.442;2022-12-29T09:59:38;8.88;97.12
69503;SHT31;56704;54.242;12.442;2022-12-29T10:02:16;8.88;96.68
69503;SHT31;56704;54.242;12.442;2022-12-29T10:04:46;8.87;96.82
69503;SHT31;56704;54.242;12.442;2022-12-29T10:07:17;8.88;96.53
69503;SHT31;56704;54.242;12.442;2022-12-29T10:09:53;8.87;96.60
69503;SHT31;56704;54.242;12.442;2022-12-29T10:12:28;8.91;96.57
69503;SHT31;56704;54.242;12.442;2022-12-29T10:15:02;8.87;96.67
69503;SHT31;56704;54.242;12.442;2022-12-29T10:17:40;8.91;96.71
69503;SHT31;56704;54.242;12.442;2022-12-29T10:20:20;8.96;97.12
69503;SHT31;56704;54.242;12.442;2022-12-29T10:23:04;9.01;97.13
69503;SHT31;56704;54.242;12.442;2022-12-29T10:25:39;9.25;97.05
69503;SHT31;56704;54.242;12.442;2022-12-29T10:28:17;9.48;96.23
69503;SHT31;56704;54.242;12.442;2022-12-29T10:30:47;9.62;96.14
69503;SHT31;56704;54.242;12.442;2022-12-29T10:33:19;9.69;95.10
69503;SHT31;56704;54.242;12.442;2022-12-29T10:35:47;9.89;94.30
69503;SHT31;56704;54.242;12.442;2022-12-29T10:38:22;9.90;94.12
69503;SHT31;56704;54.242;12.442;2022-12-29T10:40:54;10.00;93.51
69503;SHT31;56704;54.242;12.442;2022-12-29T10:43:26;10.07;92.76
69503;SHT31;56704;54.242;12.442;2022-12-29T10:45:54;10.20;92.06
69503;SHT31;56704;54.242;12.442;2022-12-29T10:48:25;10.24;92.32
69503;SHT31;56704;54.242;12.442;2022-12-29T10:50:56;10.45;91.29
69503;SHT31;56704;54.242;12.442;2022-12-29T10:53:25;10.25;92.18
69503;SHT31;56704;54.242;12.442;2022-12-29T10:55:54;10.07;92.51
69503;SHT31;56704;54.242;12.442;2022-12-29T10:58:22;10.09;92.27
69503;SHT31;56704;54.242;12.442;2022-12-29T11:00:52;10.18;92.76
69503;SHT31;56704;54.242;12.442;2022-12-29T11:03:49;10.31;92.40
69503;SHT31;56704;54.242;12.442;2022-12-29T11:06:24;10.16;93.46
69503;SHT31;56704;54.242;12.442;2022-12-29T11:08:54;9.97;93.00
69503;SHT31;56704;54.242;12.442;2022-12-29T11:11:24;9.90;93.15
69503;SHT31;56704;54.242;12.442;2022-12-29T11:13:56;9.93;92.98
69503;SHT31;56704;54.242;12.442;2022-12-29T11:16:28;10.07;92.63
69503;SHT31;56704;54.242;12.442;2022-12-29T11:18:58;10.16;92.81
69503;SHT31;56704;54.242;12.442;2022-12-29T11:21:27;10.25;92.10
69503;SHT31;56704;54.242;12.442;2022-12-29T11:23:58;10.18;92.64
69503;SHT31;56704;54.242;12.442;2022-12-29T11:26:26;10.11;91.67
69503;SHT31;56704;54.242;12.442;2022-12-29T11:29:11;9.96;91.95
69503;SHT31;56704;54.242;12.442;2022-12-29T11:31:44;9.82;92.63
69503;SHT31;56704;54.242;12.442;2022-12-29T11:34:19;9.78;92.14
69503;SHT31;56704;54.242;12.442;2022-12-29T11:36:46;9.76;92.38
69503;SHT31;56704;54.242;12.442;2022-12-29T11:39:27;10.03;91.58
69503;SHT31;56704;54.242;12.442;2022-12-29T11:41:55;10.30;90.65
69503;SHT31;56704;54.242;12.442;2022-12-29T11:44:22;10.44;90.62
69503;SHT31;56704;54.242;12.442;2022-12-29T11:46:51;10.57;89.95
69503;SHT31;56704;54.242;12.442;2022-12-29T11:49:23;10.64;88.99
69503;SHT31;56704;54.242;12.442;2022-12-29T11:51:52;10.64;88.93
69503;SHT31;56704;54.242;12.442;2022-12-29T11:54:24;10.65;88.51
69503;SHT31;56704;54.242;12.442;2022-12-29T11:56:53;10.73;88.69
69503;SHT31;56704;54.242;12.442;2022-12-29T11:59:42;10.69;88.11
69503;SHT31;56704;54.242;12.442;2022-12-29T12:02:33;10.65;87.78
69503;SHT31;56704;54.242;12.442;2022-12-29T12:05:09;10.64;87.47
69503;SHT31;56704;54.242;12.442;2022-12-29T12:07:40;10.78;87.99
69503;SHT31;56704;54.242;12.442;2022-12-29T12:10:15;10.78;87.75
69503;SHT31;56704;54.242;12.442;2022-12-29T12:12:47;10.67;86.78
69503;SHT31;56704;54.242;12.442;2022-12-29T12:15:19;10.42;87.37
69503;SHT31;56704;54.242;12.442;2022-12-29T12:17:51;10.25;87.55
69503;SHT31;56704;54.242;12.442;2022-12-29T12:20:22;10.13;87.25
69503;SHT31;56704;54.242;12.442;2022-12-29T12:23:01;10.06;87.73
69503;SHT31;56704;54.242;12.442;2022-12-29T12:25:33;9.99;87.88
69503;SHT31;56704;54.242;12.442;2022-12-29T12:28:08;10.00;87.56
69503;SHT31;56704;54.242;12.442;2022-12-29T12:30:39;9.97;86.87
69503;SHT31;56704;54.242;12.442;2022-12-29T12:33:15;9.94;88.23
69503;SHT31;56704;54.242;12.442;2022-12-29T12:35:51;10.00;87.46
69503;SHT31;56704;54.242;12.442;2022-12-29T12:38:27;10.09;86.55
69503;SHT31;56704;54.242;12.442;2022-12-29T12:41:04;10.03;87.77
69503;SHT31;56704;54.242;12.442;2022-12-29T12:43:44;10.17;86.31
69503;SHT31;56704;54.242;12.442;2022-12-29T12:46:53;10.17;86.05
69503;SHT31;56704;54.242;12.442;2022-12-29T12:52:33;10.60;85.52
69503;SHT31;56704;54.242;12.442;2022-12-29T12:55:24;10.69;85.17
69503;SHT31;56704;54.242;12.442;2022-12-29T12:58:01;10.67;84.72
69503;SHT31;56704;54.242;12.442;2022-12-29T13:00:36;10.62;84.51
69503;SHT31;56704;54.242;12.442;2022-12-29T13:03:10;10.41;84.95
69503;SHT31;56704;54.242;12.442;2022-12-29T13:05:50;10.31;86.04
69503;SHT31;56704;54.242;12.442;2022-12-29T13:08:44;10.41;85.49
69503;SHT31;56704;54.242;12.442;2022-12-29T13:11:18;10.44;84.03
69503;SHT31;56704;54.242;12.442;2022-12-29T13:14:05;10.36;85.02
69503;SHT31;56704;54.242;12.442;2022-12-29T13:16:41;10.13;85.52
69503;SHT31;56704;54.242;12.442;2022-12-29T13:19:14;9.94;86.75
69503;SHT31;56704;54.242;12.442;2022-12-29T13:21:53;9.80;87.69
69503;SHT31;56704;54.242;12.442;2022-12-29T13:24:26;9.80;87.68
69503;SHT31;56704;54.242;12.442;2022-12-29T13:27:04;9.83;86.99
69503;SHT31;56704;54.242;12.442;2022-12-29T13:29:40;9.79;86.99
69503;SHT31;56704;54.242;12.442;2022-12-29T13:32:19;9.82;87.55
69503;SHT31;56704;54.242;12.442;2022-12-29T13:34:57;9.78;87.42
69503;SHT31;56704;54.242;12.442;2022-12-29T13:37:31;9.76;87.29
69503;SHT31;56704;54.242;12.442;2022-12-29T13:40:02;9.83;86.74
69503;SHT31;56704;54.242;12.442;2022-12-29T13:42:30;9.80;87.04
69503;SHT31;56704;54.242;12.442;2022-12-29T13:45:00;9.78;87.77
69503;SHT31;56704;54.242;12.442;2022-12-29T13:47:33;9.78;87.48
69503;SHT31;56704;54.242;12.442;2022-12-29T13:50:08;9.80;86.67
69503;SHT31;56704;54.242;12.442;2022-12-29T13:52:42;9.87;85.36
69503;SHT31;56704;54.242;12.442;2022-12-29T13:55:22;9.82;87.23
69503;SHT31;56704;54.242;12.442;2022-12-29T13:57:59;9.85;86.05
69503;SHT31;56704;54.242;12.442;2022-12-29T14:00:29;9.85;86.87
69503;SHT31;56704;54.242;12.442;2022-12-29T14:03:12;9.83;86.60
69503;SHT31;56704;54.242;12.442;2022-12-29T14:05:45;9.86;86.12
69503;SHT31;56704;54.242;12.442;2022-12-29T14:08:16;9.82;86.52
69503;SHT31;56704;54.242;12.442;2022-12-29T14:10:50;9.76;86.95
69503;SHT31;56704;54.242;12.442;2022-12-29T14:13:19;9.79;86.79
69503;SHT31;56704;54.242;12.442;2022-12-29T14:15:51;9.80;85.78
69503;SHT31;56704;54.242;12.442;2022-12-29T14:18:19;9.82;86.04
69503;SHT31;56704;54.242;12.442;2022-12-29T14:20:53;9.85;85.16
69503;SHT31;56704;54.242;12.442;2022-12-29T14:23:35;9.85;85.99
69503;SHT31;56704;54.242;12.442;2022-12-29T14:26:36;9.80;85.43
69503;SHT31;56704;54.242;12.442;2022-12-29T14:32:35;9.76;86.29
69503;SHT31;56704;54.242;12.442;2022-12-29T14:38:12;9.78;85.09
69503;SHT31;56704;54.242;12.442;2022-12-29T14:40:41;9.82;85.50
69503;SHT31;56704;54.242;12.442;2022-12-29T14:43:17;9.79;85.45
69503;SHT31;56704;54.242;12.442;2022-12-29T14:45:51;9.78;85.74
69503;SHT31;56704;54.242;12.442;2022-12-29T14:48:30;9.78;85.44
69503;SHT31;56704;54.242;12.442;2022-12-29T14:50:58;9.72;85.13
69503;SHT31;56704;54.242;12.442;2022-12-29T14:53:42;9.66;86.86
69503;SHT31;56704;54.242;12.442;2022-12-29T14:56:10;9.65;85.66
69503;SHT31;56704;54.242;12.442;2022-12-29T14:58:44;9.61;85.85
69503;SHT31;56704;54.242;12.442;2022-12-29T15:01:18;9.61;85.45
69503;SHT31;56704;54.242;12.442;2022-12-29T15:03:47;9.62;85.55
69503;SHT31;56704;54.242;12.442;2022-12-29T15:06:15;9.65;85.27
69503;SHT31;56704;54.242;12.442;2022-12-29T15:08:49;9.65;85.56
69503;SHT31;56704;54.242;12.442;2022-12-29T15:11:18;9.63;85.42
69503;SHT31;56704;54.242;12.442;2022-12-29T15:13:47;9.70;84.70
69503;SHT31;56704;54.242;12.442;2022-12-29T15:16:22;9.80;83.89
69503;SHT31;56704;54.242;12.442;2022-12-29T15:18:49;9.73;85.17
69503;SHT31;56704;54.242;12.442;2022-12-29T15:21:16;9.72;85.01
69503;SHT31;56704;54.242;12.442;2022-12-29T15:23:44;9.75;84.26
69503;SHT31;56704;54.242;12.442;2022-12-29T15:26:12;9.70;84.85
69503;SHT31;56704;54.242;12.442;2022-12-29T15:28:48;9.72;84.68
69503;SHT31;56704;54.242;12.442;2022-12-29T15:31:18;9.66;84.75
69503;SHT31;56704;54.242;12.442;2022-12-29T15:33:46;9.65;85.31
69503;SHT31;56704;54.242;12.442;2022-12-29T15:36:18;9.73;84.31
69503;SHT31;56704;54.242;12.442;2022-12-29T15:38:45;9.72;84.83
69503;SHT31;56704;54.242;12.442;2022-12-29T15:41:23;9.72;84.25
69503;SHT31;56704;54.242;12.442;2022-12-29T15:44:00;9.69;84.99
69503;SHT31;56704;54.242;12.442;2022-12-29T15:46:30;9.66;84.95
69503;SHT31;56704;54.242;12.442;2022-12-29T15:48:57;9.72;84.00
69503;SHT31;56704;54.242;12.442;2022-12-29T15:51:28;9.75;84.21
69503;SHT31;56704;54.242;12.442;2022-12-29T15:53:57;9.72;84.19
69503;SHT31;56704;54.242;12.442;2022-12-29T15:56:24;9.63;84.80
69503;SHT31;56704;54.242;12.442;2022-12-29T15:58:52;9.42;86.66
69503;SHT31;56704;54.242;12.442;2022-12-29T16:01:23;9.24;88.24
69503;SHT31;56704;54.242;12.442;2022-12-29T16:03:51;9.18;87.06
69503;SHT31;56704;54.242;12.442;2022-12-29T16:06:30;9.20;86.86